Time;durP1;ratioP1;P1;durP2;ratioP2;P2;SDS_P1;SDS_P2;PMS_P1;PMS_P2;Temp;Humidity;BMP_temperature;BMP_pressure;BME280_temperature;BME280_humidity;BME280_pressure;Samples;Min_cycle;Max_cycle;Signal;HPM_P1;HPM_P2
2021/03/02 00:02:15;;;;;;;32.13;12.15;;;;;;;0.69;80.25;101464.53;5094402;28;20048;-63
2021/03/02 00:04:46;;;;;;;29.90;12.32;;;;;;;0.68;80.57;101467.78;5094228;28;20043;-63
2021/03/02 00:07:16;;;;;;;30.38;12.45;;;;;;;0.67;80.81;101468.59;5094252;28;20058;-63
2021/03/02 00:09:44;;;;;;;;;;;;;;;0.92;81.08;101469.44;5094544;28;20071;-63
2021/03/02 00:12:33;;;;;;;29.02;11.45;;;;;;;1.18;81.14;101466.97;5093985;28;19943;-63
2021/03/02 00:15:05;;;;;;;26.65;11.65;;;;;;;0.79;80.82;101469.41;5094103;28;20060;-63
2021/03/02 00:17:37;;;;;;;27.70;11.48;;;;;;;0.71;80.89;101462.97;5094097;28;20080;-63
2021/03/02 00:20:12;;;;;;;30.55;11.70;;;;;;;0.84;80.80;101467.19;5094026;28;20549;-63
2021/03/02 00:22:58;;;;;;;28.58;10.55;;;;;;;0.75;80.80;101462.41;5094033;28;20052;-63
2021/03/02 00:25:28;;;;;;;26.58;10.02;;;;;;;0.55;80.73;101467.75;5093894;28;20101;-63
2021/03/02 00:27:58;;;;;;;25.80;11.23;;;;;;;0.57;80.84;101466.22;5093981;28;20044;-63
2021/03/02 00:30:26;;;;;;;28.52;11.32;;;;;;;0.62;81.08;101469.91;5094090;28;20394;-63
2021/03/02 00:32:55;;;;;;;27.02;9.23;;;;;;;0.81;80.86;101462.84;5093837;28;20498;-63
2021/03/02 00:35:25;;;;;;;26.35;10.63;;;;;;;0.52;81.22;101442.44;5093813;28;20044;-63
2021/03/02 00:37:53;;;;;;;30.52;11.07;;;;;;;0.65;81.58;101460.03;5093767;28;20055;-63
2021/03/02 00:40:21;;;;;;;26.42;11.10;;;;;;;0.47;80.97;101468.88;5093651;28;20405;-63
2021/03/02 00:42:52;;;;;;;23.50;10.10;;;;;;;0.36;81.45;101444.69;5094003;28;20072;-63
2021/03/02 00:45:24;;;;;;;23.20;9.30;;;;;;;0.46;81.37;101467.09;5092519;28;20127;-63
2021/03/02 00:47:53;;;;;;;25.70;10.27;;;;;;;0.30;81.18;101464.34;5092807;28;20036;-63
2021/03/02 00:50:23;;;;;;;29.88;11.55;;;;;;;0.40;81.81;101471.72;5093657;28;20048;-63
2021/03/02 00:52:52;;;;;;;;;;;;;;;0.67;81.76;101463.56;5094019;28;20055;-63
2021/03/02 00:55:24;;;;;;;28.20;10.63;;;;;;;0.46;81.31;101462.97;5093980;28;20006;-63
2021/03/02 00:57:54;;;;;;;26.80;11.13;;;;;;;0.35;81.48;101463.88;5092484;28;20044;-63
2021/03/02 01:00:30;;;;;;;25.20;10.70;;;;;;;0.61;81.35;101463.13;5092399;28;20048;-64
2021/03/02 01:03:04;;;;;;;25.25;10.90;;;;;;;0.42;81.04;101465.16;5092702;28;20059;-64
2021/03/02 01:05:37;;;;;;;28.95;10.98;;;;;;;0.14;81.25;101442.34;5092309;28;20044;-63
2021/03/02 01:08:09;;;;;;;29.70;10.93;;;;;;;0.42;81.34;101465.16;5092340;28;20048;-63
2021/03/02 01:10:41;;;;;;;24.17;11.73;;;;;;;0.21;81.11;101463.72;5092274;28;20052;-63
2021/03/02 01:13:18;;;;;;;27.58;10.57;;;;;;;0.13;81.24;101468.19;5092414;28;20140;-63
2021/03/02 01:15:47;;;;;;;25.70;11.77;;;;;;;0.41;81.49;101450.84;5092070;28;20044;-63
2021/03/02 01:18:16;;;;;;;25.60;9.90;;;;;;;0.61;81.38;101455.59;5093429;28;20514;-63
2021/03/02 01:20:45;;;;;;;24.02;10.25;;;;;;;0.41;81.28;101463.41;5093333;28;20131;-63
2021/03/02 01:23:14;;;;;;;26.93;10.93;;;;;;;0.61;81.51;101448.06;5093372;28;20453;-64
2021/03/02 01:25:43;;;;;;;32.08;11.75;;;;;;;0.76;81.18;101449.09;5093088;28;20283;-64
2021/03/02 01:28:11;;;;;;;22.88;10.05;;;;;;;0.56;81.02;101456.91;5093286;28;20048;-63
2021/03/02 01:30:40;;;;;;;25.23;10.88;;;;;;;0.35;80.96;101422.84;5093236;28;20153;-63
2021/03/02 01:33:09;;;;;;;28.15;10.70;;;;;;;0.46;80.84;101440.38;5093321;28;20042;-64
2021/03/02 01:35:38;;;;;;;29.13;11.90;;;;;;;0.50;80.74;101464.94;5093242;28;20058;-63
2021/03/02 01:38:07;;;;;;;22.45;9.70;;;;;;;0.64;80.71;101465.84;5093121;28;20433;-64
2021/03/02 01:40:37;;;;;;;23.20;10.10;;;;;;;0.64;80.71;101458.31;5093545;28;20052;-63
2021/03/02 01:43:06;;;;;;;30.73;10.55;;;;;;;0.49;80.59;101458.16;5093990;28;20082;-64
2021/03/02 01:45:36;;;;;;;29.95;11.05;;;;;;;0.31;80.29;101451.03;5093329;28;20045;-63
2021/03/02 01:48:05;;;;;;;25.13;10.13;;;;;;;0.43;80.67;101459.41;5093432;28;20101;-63
2021/03/02 01:50:33;;;;;;;23.90;9.68;;;;;;;0.61;80.62;101464.00;5093128;28;20501;-63
2021/03/02 01:53:02;;;;;;;24.38;9.75;;;;;;;0.18;80.39;101448.44;5093026;28;20135;-63
2021/03/02 01:55:30;;;;;;;24.33;10.25;;;;;;;0.37;80.57;101461.47;5091858;28;20097;-64
2021/03/02 01:58:00;;;;;;;25.13;10.10;;;;;;;0.53;80.54;101451.69;5093570;28;20074;-63
2021/03/02 02:00:29;;;;;;;;;;;;;;;0.63;80.55;101456.56;5096548;28;20508;-64
2021/03/02 02:03:10;;;;;;;21.42;7.85;;;;;;;0.36;80.20;101449.69;5096604;28;19920;-63
2021/03/02 02:05:44;;;;;;;26.17;9.48;;;;;;;0.26;79.97;101453.22;5096583;28;20050;-63
2021/03/02 02:08:22;;;;;;;27.95;10.30;;;;;;;0.18;80.13;101443.41;5096503;28;20120;-64
2021/03/02 02:10:55;;;;;;;24.27;10.40;;;;;;;0.13;80.14;101454.78;5096560;28;20093;-64
2021/03/02 02:13:32;;;;;;;29.30;11.63;;;;;;;0.12;80.13;101451.38;5096333;28;20054;-64
2021/03/02 02:16:04;;;;;;;26.50;9.93;;;;;;;0.24;80.43;101453.88;5096455;28;20048;-64
2021/03/02 02:18:35;;;;;;;25.15;10.23;;;;;;;0.02;80.52;101445.63;5096391;28;20059;-63
2021/03/02 02:21:19;;;;;;;27.92;11.63;;;;;;;0.17;80.81;101449.22;5096203;28;20079;-64
2021/03/02 02:24:05;;;;;;;25.83;9.80;;;;;;;0.00;80.76;101453.06;5096301;28;20059;-63
2021/03/02 02:26:49;;;;;;;28.25;10.35;;;;;;;-0.20;80.87;101434.13;5096022;28;20446;-64
2021/03/02 02:29:21;;;;;;;25.75;11.45;;;;;;;-0.08;80.86;101447.50;5096230;28;20040;-64
2021/03/02 02:31:52;;;;;;;22.80;10.10;;;;;;;-0.02;80.94;101435.38;5096279;28;20405;-64
2021/03/02 02:34:22;;;;;;;25.08;10.23;;;;;;;-0.07;80.99;101449.25;5096361;28;20047;-63
2021/03/02 02:36:53;;;;;;;25.02;10.45;;;;;;;-0.07;81.05;101450.88;5095869;28;20052;-64
2021/03/02 02:39:23;;;;;;;28.70;10.85;;;;;;;-0.01;81.13;101444.66;5096293;28;20584;-63
2021/03/02 02:41:53;;;;;;;25.48;10.13;;;;;;;0.06;81.14;101442.56;5095744;28;20044;-64
2021/03/02 02:44:25;;;;;;;28.17;10.77;;;;;;;0.34;81.32;101447.06;5095876;28;20036;-63
2021/03/02 02:46:56;;;;;;;26.17;11.23;;;;;;;0.27;80.93;101444.91;5095682;28;20068;-63
2021/03/02 02:49:25;;;;;;;23.60;10.23;;;;;;;0.08;81.16;101436.00;5094638;28;20046;-64
2021/03/02 02:51:54;;;;;;;28.63;10.75;;;;;;;-0.08;80.93;101440.00;5095660;28;20050;-63
2021/03/02 02:54:25;;;;;;;21.45;8.73;;;;;;;-0.07;81.08;101431.69;5095659;28;20549;-63
2021/03/02 02:56:56;;;;;;;27.85;10.35;;;;;;;-0.13;80.86;101436.28;5095629;28;20131;-64
2021/03/02 02:59:29;;;;;;;25.58;9.57;;;;;;;-0.06;80.86;101423.41;5095858;28;20048;-63
2021/03/02 03:02:01;;;;;;;28.20;10.23;;;;;;;0.11;81.04;101436.22;5095804;28;20048;-63
2021/03/02 03:04:38;;;;;;;22.95;9.13;;;;;;;-0.08;80.94;101437.47;5095421;28;20052;-64
2021/03/02 03:07:13;;;;;;;22.48;9.13;;;;;;;-0.19;80.75;101438.34;5095384;28;20488;-64
2021/03/02 03:09:43;;;;;;;23.60;10.20;;;;;;;-0.17;81.04;101434.31;5095204;28;20052;-64
2021/03/02 03:12:15;;;;;;;21.55;8.45;;;;;;;-0.35;80.90;101428.00;5094341;28;20127;-64
2021/03/02 03:14:50;;;;;;;25.42;9.32;;;;;;;-0.46;81.20;101438.94;5095261;28;20044;-63
2021/03/02 03:17:20;;;;;;;23.95;8.88;;;;;;;-0.20;81.29;101436.63;5095247;28;20505;-64
2021/03/02 03:19:50;;;;;;;20.20;8.10;;;;;;;-0.11;81.01;101429.72;5095501;28;20051;-63
2021/03/02 03:22:19;;;;;;;25.48;8.82;;;;;;;-0.03;81.28;101438.69;5095059;28;20127;-63
2021/03/02 03:24:48;;;;;;;19.95;8.80;;;;;;;0.05;81.20;101435.81;5095044;28;20093;-64
2021/03/02 03:27:18;;;;;;;19.38;7.57;;;;;;;-0.11;81.30;101443.91;5094904;28;20047;-63
2021/03/02 03:29:47;;;;;;;24.15;8.52;;;;;;;-0.28;81.24;101444.34;5095028;28;20040;-63
2021/03/02 03:32:18;;;;;;;21.60;9.40;;;;;;;-0.35;81.09;101442.19;5094869;28;20043;-63
2021/03/02 03:34:47;;;;;;;23.48;8.40;;;;;;;-0.37;81.49;101444.59;5095497;28;20044;-63
2021/03/02 03:37:16;;;;;;;22.58;8.07;;;;;;;-0.41;81.34;101442.66;5094768;28;20044;-64
2021/03/02 03:39:44;;;;;;;19.95;8.07;;;;;;;-0.43;81.37;101444.16;5094787;28;20043;-64
2021/03/02 03:42:12;;;;;;;21.58;8.95;;;;;;;-0.37;81.29;101444.59;5095089;28;20489;-64
2021/03/02 03:44:41;;;;;;;24.45;9.05;;;;;;;-0.48;81.19;101445.44;5095001;28;20044;-63
2021/03/02 03:47:09;;;;;;;19.90;9.82;;;;;;;-0.41;81.43;101442.66;5094762;28;20097;-64
2021/03/02 03:49:38;;;;;;;23.95;9.00;;;;;;;-0.44;81.08;101426.50;5093687;28;20123;-63
2021/03/02 03:52:09;;;;;;;21.20;8.27;;;;;;;-0.40;81.02;101454.41;5094528;28;20048;-63
2021/03/02 03:54:37;;;;;;;23.27;8.95;;;;;;;-0.47;81.41;101454.72;5094492;28;20044;-63
2021/03/02 03:57:07;;;;;;;21.70;8.23;;;;;;;-0.41;81.50;101450.16;5094477;28;20044;-64
2021/03/02 03:59:36;;;;;;;22.45;8.88;;;;;;;-0.39;81.20;101451.16;5094903;28;20058;-64
2021/03/02 04:02:06;;;;;;;22.83;8.93;;;;;;;-0.35;81.35;101448.09;5094391;28;20113;-63
2021/03/02 04:04:37;;;;;;;22.85;8.73;;;;;;;-0.33;81.68;101438.16;5094322;28;20055;-64
2021/03/02 04:07:06;;;;;;;29.92;10.07;;;;;;;-0.25;81.67;101440.44;5094274;28;20046;-63
2021/03/02 04:09:36;;;;;;;30.75;10.82;;;;;;;-0.22;81.73;101453.22;5094121;28;20097;-64
2021/03/02 04:12:07;;;;;;;41.25;18.00;;;;;;;-0.14;81.52;101447.06;5093984;28;20071;-64
2021/03/02 04:14:36;;;;;;;33.85;14.38;;;;;;;-0.14;81.46;101454.59;5094114;28;20036;-64
2021/03/02 04:17:05;;;;;;;38.38;14.98;;;;;;;-0.44;81.68;101407.31;5094118;28;20086;-64
2021/03/02 04:19:35;;;;;;;39.08;16.05;;;;;;;-0.18;81.52;101452.66;5093927;28;20058;-63
2021/03/02 04:22:04;;;;;;;34.58;13.60;;;;;;;-0.16;81.62;101448.59;5094261;28;20472;-63
2021/03/02 04:24:32;;;;;;;39.42;15.55;;;;;;;-0.16;81.59;101460.28;5094015;28;20390;-64
2021/03/02 04:27:00;;;;;;;35.53;14.32;;;;;;;-0.15;81.36;101447.84;5094031;28;20503;-64
2021/03/02 04:29:29;;;;;;;34.13;13.23;;;;;;;-0.31;81.11;101454.19;5093926;28;20402;-64
2021/03/02 04:31:57;;;;;;;33.47;13.73;;;;;;;-0.54;81.13;101452.56;5093737;28;20082;-64
2021/03/02 04:34:26;;;;;;;32.28;12.65;;;;;;;-0.51;81.06;101457.78;5093866;28;20051;-64
2021/03/02 04:36:55;;;;;;;26.63;10.15;;;;;;;-0.42;81.07;101453.44;5093837;28;20075;-64
2021/03/02 04:39:23;;;;;;;23.15;10.38;;;;;;;-0.61;81.20;101462.91;5093729;28;20051;-63
2021/03/02 04:41:51;;;;;;;30.52;10.43;;;;;;;-0.60;80.91;101464.63;5094010;28;20213;-64
2021/03/02 04:44:20;;;;;;;23.98;10.30;;;;;;;-0.56;81.25;101461.59;5093643;28;20035;-63
2021/03/02 04:46:48;;;;;;;21.83;9.45;;;;;;;-0.70;81.16;101472.28;5093616;28;20044;-64
2021/03/02 04:49:17;;;;;;;23.65;9.48;;;;;;;-0.72;80.81;101463.78;5093502;28;20051;-64
2021/03/02 04:51:46;;;;;;;22.75;8.57;;;;;;;-0.75;81.13;101469.44;5093919;28;20113;-64
2021/03/02 04:54:15;;;;;;;22.48;9.23;;;;;;;-0.68;81.05;101475.75;5093570;28;20461;-63
2021/03/02 04:56:43;;;;;;;25.27;8.70;;;;;;;-0.81;81.10;101470.59;5093634;28;20136;-63
2021/03/02 04:59:11;;;;;;;22.15;9.13;;;;;;;-0.69;81.27;101466.47;5092293;28;20047;-63
2021/03/02 05:01:39;;;;;;;25.02;10.50;;;;;;;-0.74;81.49;101475.31;5093562;28;20044;-63
2021/03/02 05:04:08;;;;;;;21.20;9.60;;;;;;;-0.80;81.00;101472.38;5093590;28;20043;-64
2021/03/02 05:06:36;;;;;;;25.15;10.10;;;;;;;-0.78;81.48;101475.84;5093357;28;20075;-63
2021/03/02 05:09:06;;;;;;;24.10;9.87;;;;;;;-0.96;81.29;101472.88;5093523;28;20043;-63
2021/03/02 05:11:35;;;;;;;28.98;10.25;;;;;;;-0.90;81.52;101472.44;5093188;28;20063;-63
2021/03/02 05:14:03;;;;;;;25.52;9.32;;;;;;;-0.85;81.71;101471.16;5093496;28;20458;-63
2021/03/02 05:16:31;;;;;;;24.65;9.40;;;;;;;-0.80;81.72;101469.84;5093572;28;20062;-63
2021/03/02 05:19:02;;;;;;;20.60;8.88;;;;;;;-0.68;82.03;101476.66;5093477;28;20131;-63
2021/03/02 05:21:31;;;;;;;24.42;9.43;;;;;;;-0.67;81.68;101477.50;5093207;28;20048;-63
2021/03/02 05:23:59;;;;;;;23.00;10.05;;;;;;;-0.65;81.67;101476.00;5093735;28;20072;-63
2021/03/02 05:26:29;;;;;;;26.90;10.33;;;;;;;-0.71;81.77;101473.03;5093527;28;20123;-63
2021/03/02 05:28:57;;;;;;;23.38;9.38;;;;;;;-0.64;82.18;101477.72;5093255;28;20044;-63
2021/03/02 05:31:25;;;;;;;21.65;8.82;;;;;;;-0.55;81.79;101472.50;5093203;28;20052;-63
2021/03/02 05:33:54;;;;;;;21.45;9.70;;;;;;;-0.53;81.61;101466.84;5093985;28;20052;-64
2021/03/02 05:36:27;;;;;;;24.48;9.38;;;;;;;-0.63;81.88;101476.97;5097505;28;20061;-64
2021/03/02 05:38:55;;;;;;;22.35;9.13;;;;;;;-0.57;81.83;101479.91;5096876;28;20187;-63
2021/03/02 05:41:23;;;;;;;22.60;9.70;;;;;;;-0.49;81.56;101486.34;5097288;28;20040;-64
2021/03/02 05:43:53;;;;;;;24.45;9.80;;;;;;;-0.65;81.37;101496.06;5096968;28;20048;-63
2021/03/02 05:46:34;;;;;;;24.38;9.50;;;;;;;-0.80;81.62;101490.78;5097115;28;20489;-63
2021/03/02 05:49:03;;;;;;;24.20;9.77;;;;;;;-0.77;81.51;101502.69;5097100;28;20044;-63
2021/03/02 05:51:33;;;;;;;27.90;9.57;;;;;;;-0.71;81.74;101503.09;5095926;28;20093;-64
2021/03/02 05:54:02;;;;;;;22.50;9.50;;;;;;;-0.72;81.92;101498.88;5096869;28;20040;-63
2021/03/02 05:56:30;;;;;;;26.35;10.27;;;;;;;-0.56;82.05;101496.72;5096763;28;20080;-64
2021/03/02 05:59:00;;;;;;;27.13;10.23;;;;;;;-0.51;81.83;101500.44;5095659;28;20082;-64
2021/03/02 06:01:29;;;;;;;23.17;10.30;;;;;;;-0.46;81.99;101494.09;5095045;28;20111;-65
2021/03/02 06:03:58;;;;;;;29.60;11.15;;;;;;;-0.47;81.99;101482.31;5096809;28;20044;-64
2021/03/02 06:06:26;;;;;;;26.75;11.20;;;;;;;-0.26;82.02;101493.88;5096510;28;20036;-64
2021/03/02 06:08:54;;;;;;;29.60;12.07;;;;;;;-0.13;81.62;101494.00;5096428;28;20036;-64
2021/03/02 06:11:27;;;;;;;30.17;12.85;;;;;;;-0.07;81.73;101491.03;5096243;28;20055;-64
2021/03/02 06:13:58;;;;;;;32.88;15.05;;;;;;;0.30;81.73;101494.47;5096475;28;20080;-64
2021/03/02 06:16:45;;;;;;;40.17;14.05;;;;;;;0.40;81.11;101487.69;5096755;28;20056;-64
2021/03/02 06:19:14;;;;;;;35.75;14.60;;;;;;;0.67;81.12;101498.72;5096690;28;20058;-64
2021/03/02 06:21:43;;;;;;;31.63;14.85;;;;;;;0.96;80.51;101494.00;5096550;28;20456;-64
2021/03/02 06:24:11;;;;;;;28.87;12.40;;;;;;;1.15;80.25;101486.88;5096272;28;20051;-65
2021/03/02 06:26:39;;;;;;;30.08;12.60;;;;;;;1.29;80.09;101496.22;5096069;28;20090;-65
2021/03/02 06:29:15;;;;;;;22.60;9.90;;;;;;;1.48;79.83;101502.44;5096229;28;20123;-65
2021/03/02 06:31:45;;;;;;;25.95;10.63;;;;;;;1.76;79.25;101485.81;5096069;28;20060;-65
2021/03/02 06:34:15;;;;;;;24.23;10.70;;;;;;;2.22;79.14;101490.41;5094925;28;20486;-65
2021/03/02 06:36:43;;;;;;;;;;;;;;;2.48;78.42;101500.41;5096410;28;20044;-64
2021/03/02 06:39:27;;;;;;;28.02;10.80;;;;;;;2.65;77.35;101504.84;5096477;28;19974;-64
2021/03/02 06:42:11;;;;;;;30.33;10.85;;;;;;;2.88;76.57;101503.66;5095013;28;20076;-65
2021/03/02 06:44:40;;;;;;;31.73;11.18;;;;;;;2.97;76.15;101494.13;5095767;28;20123;-65
2021/03/02 06:47:31;;;;;;;25.83;11.43;;;;;;;3.13;76.08;101496.75;5095107;28;20040;-65
2021/03/02 06:50:00;;;;;;;26.65;11.05;;;;;;;3.19;75.27;101501.31;5096081;28;20048;-65
2021/03/02 06:52:35;;;;;;;29.67;12.40;;;;;;;3.21;74.88;101495.56;5095981;28;20143;-64
2021/03/02 06:55:20;;;;;;;28.92;11.48;;;;;;;3.45;75.43;101496.09;5096262;28;20067;-65
2021/03/02 06:57:49;;;;;;;27.85;11.13;;;;;;;3.71;74.70;101490.84;5095509;28;20051;-64
2021/03/02 07:00:31;;;;;;;26.65;11.02;;;;;;;3.01;74.27;101341.34;5095559;28;20056;-64
2021/03/02 07:03:00;;;;;;;26.60;10.70;;;;;;;3.95;74.35;101501.41;5095723;28;20048;-65
2021/03/02 07:05:28;;;;;;;29.90;11.50;;;;;;;4.18;74.07;101493.41;5095372;28;20044;-65
2021/03/02 07:07:57;;;;;;;28.67;11.20;;;;;;;4.14;73.32;101493.16;5095585;28;20040;-64
2021/03/02 07:10:27;;;;;;;30.77;10.93;;;;;;;4.25;73.26;101503.06;5095556;28;20036;-64
2021/03/02 07:12:55;;;;;;;25.10;10.73;;;;;;;4.38;73.38;101500.41;5095292;28;20059;-64
2021/03/02 07:15:24;;;;;;;26.20;10.93;;;;;;;4.58;72.19;101504.84;5095167;28;20393;-64
2021/03/02 07:17:54;;;;;;;28.05;11.02;;;;;;;4.53;72.33;101482.66;5095231;28;20439;-65
2021/03/02 07:20:25;;;;;;;25.27;10.85;;;;;;;4.67;71.46;101491.81;5095125;28;20052;-65
2021/03/02 07:22:55;;;;;;;25.75;10.85;;;;;;;4.65;71.48;101488.34;5095080;28;20051;-65
2021/03/02 07:25:24;;;;;;;21.90;10.75;;;;;;;4.74;71.40;101501.47;5095084;28;20048;-63
2021/03/02 07:27:55;;;;;;;25.98;10.77;;;;;;;4.81;71.40;101492.53;5094779;28;20051;-64
2021/03/02 07:30:24;;;;;;;28.33;11.18;;;;;;;4.89;71.74;101504.78;5095019;28;20101;-65
2021/03/02 07:32:53;;;;;;;27.00;11.23;;;;;;;4.49;71.12;101460.50;5094774;28;20053;-64
2021/03/02 07:35:23;;;;;;;;;;;;;;;4.71;72.34;101491.19;5095263;28;20094;-64
2021/03/02 07:37:52;;;;;;;26.80;10.73;;;;;;;4.65;71.75;101450.44;5094716;28;19927;-64
2021/03/02 07:40:21;;;;;;;25.15;10.95;;;;;;;5.30;71.69;101497.59;5094638;28;20512;-64
2021/03/02 07:42:49;;;;;;;22.73;10.80;;;;;;;5.30;70.28;101492.53;5094745;28;20047;-64
2021/03/02 07:45:21;;;;;;;22.90;10.48;;;;;;;5.45;70.10;101486.50;5093365;28;20047;-64
2021/03/02 07:48:05;;;;;;;24.42;10.43;;;;;;;5.65;70.14;101498.44;5094519;28;20048;-65
2021/03/02 07:50:35;;;;;;;22.42;10.50;;;;;;;5.59;69.81;101482.97;5094462;28;20071;-64
2021/03/02 07:53:20;;;;;;;34.42;11.10;;;;;;;5.88;69.22;101502.97;5094970;28;20115;-64
2021/03/02 07:56:08;;;;;;;23.10;10.63;;;;;;;5.75;68.83;101503.16;5093884;28;20405;-65
2021/03/02 07:58:36;;;;;;;20.13;9.75;;;;;;;5.60;68.93;101497.34;5093046;28;20044;-64
2021/03/02 08:01:18;;;;;;;24.73;10.57;;;;;;;5.77;69.11;101514.22;5094516;28;20067;-65
2021/03/02 08:03:46;;;;;;;24.65;11.15;;;;;;;5.90;68.66;101509.84;5094302;28;20106;-64
2021/03/02 08:06:33;;;;;;;26.52;10.70;;;;;;;5.91;68.32;101510.72;5094339;28;20040;-65
2021/03/02 08:09:28;;;;;;;25.15;11.32;;;;;;;6.06;68.39;101511.44;5094459;28;20521;-63
2021/03/02 08:12:25;;;;;;;23.33;11.52;;;;;;;6.41;68.26;101513.91;5093803;28;20063;-65
2021/03/02 08:14:54;;;;;;;22.25;9.73;;;;;;;6.55;68.44;101512.88;5094165;28;20048;-65
2021/03/02 08:17:23;;;;;;;25.15;11.27;;;;;;;6.80;67.19;101516.50;5094342;28;20105;-64
2021/03/02 08:19:59;;;;;;;28.05;11.48;;;;;;;7.01;66.85;101512.34;5093966;28;20067;-65
2021/03/02 08:22:48;;;;;;;24.05;10.88;;;;;;;6.97;65.83;101505.41;5094235;28;20050;-64
2021/03/02 08:25:28;;;;;;;26.60;11.55;;;;;;;7.12;65.74;101517.09;5093964;28;20547;-63
2021/03/02 08:28:01;;;;;;;22.33;9.68;;;;;;;7.16;66.52;101497.75;5093774;28;20489;-63
2021/03/02 08:30:34;;;;;;;25.30;11.10;;;;;;;7.08;66.27;101491.53;5093916;28;20086;-64
2021/03/02 08:33:06;;;;;;;24.88;10.23;;;;;;;7.70;65.89;101500.00;5093825;28;20052;-63
2021/03/02 08:35:37;;;;;;;26.67;11.00;;;;;;;7.90;64.55;101499.13;5093858;28;20043;-65
2021/03/02 08:38:08;;;;;;;25.05;11.43;;;;;;;8.02;64.83;101499.63;5093997;28;20051;-64
2021/03/02 08:40:47;;;;;;;26.60;10.88;;;;;;;8.16;64.52;101496.75;5093486;28;20048;-65
2021/03/02 08:43:20;;;;;;;24.02;11.02;;;;;;;8.07;63.55;101487.94;5093707;28;20044;-65
2021/03/02 08:45:51;;;;;;;26.95;10.88;;;;;;;8.27;63.40;101490.41;5093672;28;20521;-65
2021/03/02 08:48:37;;;;;;;27.10;12.35;;;;;;;8.26;63.46;101489.53;5093871;28;20048;-65
2021/03/02 08:51:08;;;;;;;29.70;12.25;;;;;;;8.49;62.62;101487.84;5093615;28;20093;-63
2021/03/02 08:53:41;;;;;;;25.80;12.77;;;;;;;8.49;63.75;101491.28;5092326;28;20056;-63
2021/03/02 08:56:20;;;;;;;31.05;13.98;;;;;;;7.93;65.08;101485.69;5093581;28;20379;-62
2021/03/02 08:58:50;;;;;;;30.27;13.15;;;;;;;8.17;66.52;101488.28;5093564;28;20056;-62
2021/03/02 09:01:27;;;;;;;31.67;13.70;;;;;;;8.33;65.67;101495.72;5093597;28;20047;-63
2021/03/02 09:04:11;;;;;;;30.13;14.13;;;;;;;6.46;65.95;101157.41;5092298;28;20044;-63
2021/03/02 09:06:40;;;;;;;31.30;14.25;;;;;;;8.79;64.66;101478.75;5093418;28;20044;-63
2021/03/02 09:09:11;;;;;;;30.10;13.93;;;;;;;8.98;65.32;101487.91;5095128;28;20486;-63
2021/03/02 09:11:42;;;;;;;27.73;13.88;;;;;;;8.87;65.24;101469.72;5097599;28;20142;-63
2021/03/02 09:14:13;;;;;;;32.15;14.30;;;;;;;9.51;62.91;101489.69;5097684;28;20052;-63
2021/03/02 09:16:43;;;;;;;28.20;13.18;;;;;;;9.66;60.70;101490.19;5097461;28;20142;-63
2021/03/02 09:19:16;;;;;;;28.75;13.13;;;;;;;9.59;59.78;101489.16;5098097;28;20055;-63
2021/03/02 09:21:47;;;;;;;28.55;13.20;;;;;;;9.70;59.82;101487.78;5097974;28;20070;-63
2021/03/02 09:24:21;;;;;;;29.05;13.20;;;;;;;9.91;60.14;101482.53;5097269;28;20048;-64
2021/03/02 09:26:53;;;;;;;33.53;13.82;;;;;;;10.50;59.92;101480.06;5097312;28;20040;-63
2021/03/02 09:29:24;;;;;;;29.60;13.40;;;;;;;10.66;59.92;101479.66;5097223;28;20131;-63
2021/03/02 09:31:55;;;;;;;26.13;12.27;;;;;;;10.45;58.34;101490.97;5097232;28;20067;-63
2021/03/02 09:34:31;;;;;;;29.73;13.95;;;;;;;10.13;59.24;101490.00;5096999;28;20488;-64
2021/03/02 09:37:04;;;;;;;31.85;14.15;;;;;;;10.39;59.42;101489.09;5097080;28;20040;-64
2021/03/02 09:39:35;;;;;;;23.77;12.02;;;;;;;10.52;59.95;101475.88;5097057;28;20070;-64
2021/03/02 09:42:17;;;;;;;26.20;12.98;;;;;;;10.84;59.52;101463.13;5097078;28;20056;-64
2021/03/02 09:44:47;;;;;;;28.55;12.88;;;;;;;11.03;58.73;101490.88;5096992;28;20052;-64
2021/03/02 09:47:23;;;;;;;31.25;14.68;;;;;;;11.20;58.01;101474.31;5097145;28;20044;-64
2021/03/02 09:49:58;;;;;;;30.85;15.13;;;;;;;11.14;58.50;101484.34;5096895;28;20127;-63
2021/03/02 09:52:31;;;;;;;34.40;16.15;;;;;;;11.07;57.62;101498.66;5096892;28;20044;-63
2021/03/02 09:55:16;;;;;;;30.63;15.00;;;;;;;11.05;58.04;101494.34;5096829;28;20048;-64
2021/03/02 09:58:05;;;;;;;27.77;13.25;;;;;;;11.17;58.01;101475.09;5097114;28;20044;-64
2021/03/02 10:00:36;;;;;;;30.23;14.23;;;;;;;11.41;57.51;101490.19;5096669;28;20044;-64
2021/03/02 10:03:10;;;;;;;32.10;14.07;;;;;;;11.43;57.87;101485.97;5097035;28;20067;-63
2021/03/02 10:05:41;;;;;;;30.42;13.68;;;;;;;11.58;57.74;101478.66;5096579;28;20048;-64
2021/03/02 10:08:29;;;;;;;30.33;13.88;;;;;;;12.10;56.97;101480.75;5096489;28;20048;-64
2021/03/02 10:11:00;;;;;;;31.70;15.77;;;;;;;12.11;56.87;101482.50;5096495;28;20131;-63
2021/03/02 10:13:35;;;;;;;30.33;14.00;;;;;;;11.92;56.85;101483.78;5096311;28;20072;-64
2021/03/02 10:16:28;;;;;;;29.25;13.98;;;;;;;12.52;56.25;101475.69;5096329;28;20076;-64
2021/03/02 10:19:02;;;;;;;26.20;13.07;;;;;;;12.42;55.21;101484.00;5096241;28;20032;-64
2021/03/02 10:21:40;;;;;;;27.52;13.35;;;;;;;12.81;55.04;101479.69;5096063;28;20048;-64
2021/03/02 10:24:08;;;;;;;27.52;12.82;;;;;;;12.42;54.84;101478.88;5096288;28;20048;-64
2021/03/02 10:26:39;;;;;;;25.67;13.23;;;;;;;12.33;54.82;101471.88;5096051;28;20036;-64
2021/03/02 10:29:08;;;;;;;25.55;13.32;;;;;;;12.72;55.19;101471.78;5096133;28;20402;-64
2021/03/02 10:31:36;;;;;;;27.92;13.10;;;;;;;12.93;54.97;101469.66;5096085;28;20044;-64
2021/03/02 10:34:06;;;;;;;;;;;;;;;12.64;54.44;101471.66;5096494;28;20055;-64
2021/03/02 10:36:36;;;;;;;27.25;13.30;;;;;;;12.88;54.55;101470.41;5096008;28;19947;-64
2021/03/02 10:39:07;;;;;;;22.52;11.63;;;;;;;13.09;54.25;101463.13;5095880;28;20055;-64
2021/03/02 10:41:35;;;;;;;24.83;11.60;;;;;;;13.48;53.79;101460.38;5095981;28;20117;-64
2021/03/02 10:44:06;;;;;;;28.67;12.57;;;;;;;13.02;53.07;101464.69;5095789;28;20048;-63
2021/03/02 10:46:35;;;;;;;21.45;11.32;;;;;;;13.08;53.93;101462.25;5095908;28;20129;-64
2021/03/02 10:49:05;;;;;;;24.08;11.93;;;;;;;13.57;53.37;101460.53;5095698;28;20044;-64
2021/03/02 10:51:34;;;;;;;23.17;12.55;;;;;;;13.47;52.96;101458.63;5094498;28;20052;-64
2021/03/02 10:54:03;;;;;;;27.48;12.98;;;;;;;13.43;52.85;101453.47;5095638;28;20048;-64
2021/03/02 10:56:31;;;;;;;23.17;12.02;;;;;;;13.81;52.78;101458.31;5094299;28;20075;-65
2021/03/02 10:58:59;;;;;;;26.70;13.07;;;;;;;13.50;52.21;101458.69;5095833;28;20040;-64
2021/03/02 11:01:28;;;;;;;25.50;12.82;;;;;;;13.73;52.18;101449.63;5095506;28;20051;-63
2021/03/02 11:03:57;;;;;;;25.65;12.30;;;;;;;13.93;51.60;101446.53;5095469;28;20378;-63
2021/03/02 11:06:25;;;;;;;23.58;12.52;;;;;;;13.26;51.11;101388.22;5095289;28;20543;-63
2021/03/02 11:09:01;;;;;;;24.27;12.75;;;;;;;13.87;51.28;101440.44;5095615;28;20510;-63
2021/03/02 11:11:29;;;;;;;25.35;12.13;;;;;;;13.80;50.56;101436.06;5094994;28;20113;-63
2021/03/02 11:13:58;;;;;;;21.17;11.05;;;;;;;13.95;50.93;101441.41;5095285;28;20051;-63
2021/03/02 11:16:26;;;;;;;23.13;11.57;;;;;;;14.26;50.97;101434.97;5095155;28;20044;-63
2021/03/02 11:18:57;;;;;;;22.13;11.90;;;;;;;14.18;49.98;101427.16;5095202;28;20509;-64
2021/03/02 11:21:26;;;;;;;24.20;12.38;;;;;;;14.60;49.65;101412.31;5095151;28;20044;-63
2021/03/02 11:23:54;;;;;;;21.42;11.05;;;;;;;15.09;49.49;101413.63;5095071;28;20101;-63
2021/03/02 11:26:22;;;;;;;22.83;11.82;;;;;;;14.99;49.41;101416.09;5094945;28;20036;-63
2021/03/02 11:28:50;;;;;;;20.52;11.38;;;;;;;14.98;48.62;101407.53;5094793;28;20044;-63
2021/03/02 11:31:19;;;;;;;24.42;11.82;;;;;;;14.76;48.18;101405.59;5094487;28;20047;-63
2021/03/02 11:33:47;;;;;;;27.00;12.20;;;;;;;14.63;48.27;101402.06;5094961;28;20090;-63
2021/03/02 11:36:18;;;;;;;22.40;11.25;;;;;;;14.56;48.98;101402.84;5094890;28;20048;-63
2021/03/02 11:38:47;;;;;;;23.70;11.93;;;;;;;14.74;48.47;101389.28;5094977;28;20040;-63